createdAt,value
2023-02-18T00:01:10.989Z,8.76
2023-02-18T00:05:09.980Z,8.69
2023-02-18T00:09:09.206Z,8.64
2023-02-18T00:13:08.118Z,8.61
2023-02-18T00:17:06.090Z,8.52
2023-02-18T00:21:04.173Z,8.43
2023-02-18T00:25:01.951Z,8.37
2023-02-18T00:29:00.979Z,8.33
2023-02-18T00:32:59.960Z,8.24
2023-02-18T00:36:57.935Z,8.12
2023-02-18T00:40:57.942Z,8.04
2023-02-18T00:44:55.919Z,7.93
2023-02-18T00:48:53.964Z,7.90
2023-02-18T00:52:51.921Z,7.91
2023-02-18T00:56:51.027Z,7.91
2023-02-18T01:00:50.029Z,7.89
2023-02-18T01:04:48.084Z,7.82
2023-02-18T01:08:46.213Z,7.72
2023-02-18T01:12:43.955Z,7.61
2023-02-18T01:16:41.932Z,7.52
2023-02-18T01:20:41.132Z,7.46
2023-02-18T01:24:39.933Z,7.40
2023-02-18T01:28:38.020Z,7.30
2023-02-18T01:32:35.852Z,7.21
2023-02-18T01:36:33.972Z,7.14
2023-02-18T01:40:38.905Z,7.06
2023-02-18T01:44:40.891Z,6.97
2023-02-18T01:49:10.501Z,6.89
2023-02-18T01:53:07.981Z,6.80
2023-02-18T01:57:20.892Z,6.72
2023-02-18T02:01:19.851Z,6.61
2023-02-18T02:05:18.908Z,6.55
2023-02-18T02:09:20.854Z,6.48
2023-02-18T02:13:33.808Z,6.41
2023-02-18T02:17:47.865Z,6.37
2023-02-18T02:21:55.799Z,6.34
2023-02-18T02:26:38.828Z,6.32
2023-02-18T02:31:12.913Z,6.27
2023-02-18T02:35:33.847Z,6.26
2023-02-18T02:39:35.812Z,6.27
2023-02-18T02:43:55.912Z,6.29
2023-02-18T02:48:34.763Z,6.30
2023-02-18T02:52:39.782Z,6.31
2023-02-18T02:56:39.792Z,6.33
2023-02-18T03:01:04.784Z,6.32
2023-02-18T03:05:20.766Z,6.33
2023-02-18T03:09:49.755Z,6.33
2023-02-18T03:14:17.828Z,6.36
2023-02-18T03:18:22.908Z,6.39
2023-02-18T03:22:27.723Z,6.38
2023-02-18T03:26:27.887Z,6.37
2023-02-18T03:30:30.740Z,6.35
2023-02-18T03:34:34.751Z,6.32
2023-02-18T03:38:35.698Z,6.29
2023-02-18T03:42:33.728Z,6.29
2023-02-18T03:46:31.684Z,6.30
2023-02-18T03:50:29.731Z,6.32
2023-02-18T03:54:27.772Z,6.34
2023-02-18T03:58:25.696Z,6.36
2023-02-18T04:02:23.672Z,6.35
2023-02-18T04:06:21.706Z,6.34
2023-02-18T04:10:20.675Z,6.32
2023-02-18T04:14:18.672Z,6.29
2023-02-18T04:18:16.653Z,6.28
2023-02-18T04:22:14.880Z,6.26
2023-02-18T04:26:12.668Z,6.27
2023-02-18T04:30:10.727Z,6.29
2023-02-18T04:34:08.649Z,6.29
2023-02-18T04:38:06.682Z,6.25
2023-02-18T04:42:04.627Z,6.21
2023-02-18T04:46:02.720Z,6.18
2023-02-18T04:50:00.758Z,6.12
2023-02-18T04:53:58.728Z,6.05
2023-02-18T04:57:56.606Z,5.99
2023-02-18T05:01:55.863Z,5.95
2023-02-18T05:05:53.599Z,5.89
2023-02-18T05:09:51.623Z,5.83
2023-02-18T05:13:49.590Z,5.75
2023-02-18T05:17:47.738Z,5.64
2023-02-18T05:21:45.727Z,5.53
2023-02-18T05:25:43.648Z,5.41
2023-02-18T05:29:41.680Z,5.36
2023-02-18T05:33:39.613Z,5.34
2023-02-18T05:37:37.641Z,5.32
2023-02-18T05:41:36.584Z,5.31
2023-02-18T05:45:34.618Z,5.32
2023-02-18T05:49:32.588Z,5.34
2023-02-18T05:53:30.570Z,5.35
2023-02-18T05:57:29.553Z,5.36
2023-02-18T06:01:27.546Z,5.39
2023-02-18T06:05:25.649Z,5.44
2023-02-18T06:09:25.535Z,5.50
2023-02-18T06:13:23.546Z,5.54
2023-02-18T06:17:21.502Z,5.57
2023-02-18T06:21:19.624Z,5.59
2023-02-18T06:25:17.490Z,5.60
2023-02-18T06:29:17.514Z,5.63
2023-02-18T06:33:16.597Z,5.66
2023-02-18T06:37:15.497Z,5.68
2023-02-18T06:41:13.487Z,5.71
2023-02-18T06:45:13.506Z,5.74
2023-02-18T06:49:11.591Z,5.76
2023-02-18T06:53:09.559Z,5.78
2023-02-18T06:57:07.536Z,5.78
2023-02-18T07:01:05.459Z,5.80
2023-02-18T07:05:03.509Z,5.82
2023-02-18T07:09:01.575Z,5.81
2023-02-18T07:13:01.605Z,5.80
2023-02-18T07:17:06.173Z,5.83
2023-02-18T07:21:04.455Z,5.87
2023-02-18T07:25:08.494Z,5.87
2023-02-18T07:29:06.519Z,5.87
2023-02-18T07:33:04.409Z,5.85
2023-02-18T07:37:09.401Z,5.90
2023-02-18T07:41:08.445Z,5.94
2023-02-18T07:45:06.398Z,5.99
2023-02-18T07:49:04.452Z,6.00
2023-02-18T07:53:02.377Z,6.02
2023-02-18T07:57:01.387Z,6.06
2023-02-18T08:01:00.386Z,6.12
2023-02-18T08:04:58.455Z,6.18
2023-02-18T08:08:56.343Z,6.23
2023-02-18T08:12:54.528Z,6.30
2023-02-18T08:16:54.383Z,6.34
2023-02-18T08:20:52.334Z,6.45
2023-02-18T08:24:50.354Z,6.53
2023-02-18T08:28:48.434Z,6.62
2023-02-18T08:32:29.414Z,6.67
2023-02-18T08:35:55.424Z,6.70
2023-02-18T08:39:19.419Z,6.78
2023-02-18T08:42:43.431Z,6.87
2023-02-18T08:46:07.618Z,6.92
2023-02-18T08:49:31.658Z,7.00
2023-02-18T08:52:55.628Z,7.06
2023-02-18T08:56:19.635Z,7.15
2023-02-18T08:59:44.797Z,7.30
2023-02-18T09:03:09.369Z,7.41
2023-02-18T09:06:33.430Z,7.49
2023-02-18T09:09:57.418Z,7.57
2023-02-18T09:13:21.365Z,7.67
2023-02-18T09:16:45.341Z,7.76
2023-02-18T09:20:11.207Z,7.81
2023-02-18T09:23:37.518Z,7.91
2023-02-18T09:27:03.591Z,7.92
2023-02-18T09:30:27.635Z,7.86
2023-02-18T09:33:55.278Z,7.88
2023-02-18T09:37:19.154Z,7.93
2023-02-18T09:40:50.961Z,7.96
2023-02-18T09:44:24.410Z,7.94
2023-02-18T09:47:49.251Z,7.97
2023-02-18T09:51:16.481Z,7.94
2023-02-18T09:54:40.600Z,8.01
2023-02-18T09:58:05.875Z,8.03
2023-02-18T10:01:37.764Z,8.08
2023-02-18T10:05:02.099Z,8.20
2023-02-18T10:08:34.473Z,8.28
2023-02-18T10:12:09.365Z,8.44
2023-02-18T10:15:34.613Z,8.63
2023-02-18T10:19:07.053Z,8.55
2023-02-18T10:22:31.237Z,8.63
2023-02-18T10:25:56.849Z,8.74
2023-02-18T10:29:22.102Z,8.92
2023-02-18T10:32:47.255Z,8.98
2023-02-18T10:36:21.395Z,9.05
2023-02-18T10:39:49.475Z,9.02
2023-02-18T10:44:01.618Z,9.00
2023-02-18T10:47:39.810Z,8.97
2023-02-18T10:51:15.841Z,8.97
2023-02-18T10:54:51.033Z,8.85
2023-02-18T10:58:34.651Z,8.68
2023-02-18T11:02:15.277Z,8.79
2023-02-18T11:05:39.719Z,9.05
2023-02-18T11:09:04.131Z,9.31
2023-02-18T11:12:55.549Z,9.43
2023-02-18T11:16:37.652Z,9.60
2023-02-18T11:20:04.556Z,9.95
2023-02-18T11:23:29.015Z,10.14
2023-02-18T11:26:52.833Z,10.18
2023-02-18T11:30:33.355Z,10.06
2023-02-18T11:34:00.535Z,9.92
2023-02-18T11:37:24.707Z,9.84
2023-02-18T11:40:56.550Z,9.91
2023-02-18T11:44:32.511Z,9.80
2023-02-18T11:48:07.852Z,9.86
2023-02-18T11:51:36.863Z,10.02
2023-02-18T11:55:25.027Z,10.13
2023-02-18T11:58:49.901Z,9.93
2023-02-18T12:02:27.847Z,9.77
2023-02-18T12:05:53.103Z,9.81
2023-02-18T12:09:26.168Z,9.84
2023-02-18T12:13:00.222Z,10.05
2023-02-18T12:17:02.799Z,10.19
2023-02-18T12:20:48.800Z,10.15
2023-02-18T12:24:40.595Z,9.96
2023-02-18T12:28:09.554Z,9.99
2023-02-18T12:32:03.961Z,10.07
2023-02-18T12:35:38.688Z,9.93
2023-02-18T12:39:14.746Z,9.74
2023-02-18T12:42:47.840Z,9.55
2023-02-18T12:46:14.855Z,9.48
2023-02-18T12:49:57.623Z,9.55
2023-02-18T12:53:42.686Z,9.43
2023-02-18T12:57:49.026Z,9.52
2023-02-18T13:01:57.090Z,9.56
2023-02-18T13:06:29.066Z,9.73
2023-02-18T13:10:45.065Z,9.72
2023-02-18T13:14:53.023Z,9.56
2023-02-18T13:18:58.274Z,9.56
2023-02-18T13:22:57.003Z,9.52
2023-02-18T13:26:57.972Z,9.74
2023-02-18T13:31:11.581Z,10.05
2023-02-18T13:35:19.016Z,10.24
2023-02-18T13:39:26.116Z,10.35
2023-02-18T13:43:43.024Z,10.14
2023-02-18T13:48:02.109Z,9.99
2023-02-18T13:52:01.946Z,9.80
2023-02-18T13:56:11.057Z,9.46
2023-02-18T14:00:10.147Z,9.13
2023-02-18T14:04:10.919Z,8.83
2023-02-18T14:08:51.084Z,8.73
2023-02-18T14:12:54.988Z,8.83
2023-02-18T14:17:31.977Z,8.88
2023-02-18T14:21:29.964Z,8.79
2023-02-18T14:25:28.965Z,8.56
2023-02-18T14:29:28.911Z,8.38
2023-02-18T14:33:29.886Z,8.23
2023-02-18T14:38:07.937Z,8.13
2023-02-18T14:42:30.872Z,8.06
2023-02-18T14:47:08.881Z,7.92
2023-02-18T14:51:08.125Z,7.77
2023-02-18T14:55:06.032Z,7.70
2023-02-18T14:59:14.864Z,7.62
2023-02-18T15:03:15.969Z,7.54
2023-02-18T15:07:16.840Z,7.46
2023-02-18T15:11:17.853Z,7.38
2023-02-18T15:15:18.832Z,7.32
2023-02-18T15:19:20.941Z,7.23
2023-02-18T15:23:18.874Z,7.21
2023-02-18T15:27:19.869Z,7.14
2023-02-18T15:31:18.916Z,7.10
2023-02-18T15:35:29.843Z,7.08
2023-02-18T15:39:27.826Z,7.05
2023-02-18T15:43:31.805Z,7.01
2023-02-18T15:47:30.818Z,6.97
2023-02-18T15:51:33.812Z,6.92
2023-02-18T15:55:44.812Z,6.88
2023-02-18T15:59:43.852Z,6.84
2023-02-18T16:03:53.890Z,6.79
2023-02-18T16:08:07.041Z,6.75
2023-02-18T16:12:16.747Z,6.72
2023-02-18T16:16:14.839Z,6.69
2023-02-18T16:20:37.768Z,6.70
2023-02-18T16:24:44.814Z,6.68
2023-02-18T16:28:47.840Z,6.67
2023-02-18T16:32:45.791Z,6.56
2023-02-18T16:36:32.283Z,6.38
2023-02-18T16:39:57.531Z,6.21
2023-02-18T16:43:25.006Z,5.98
2023-02-18T16:46:49.014Z,5.80
2023-02-18T16:50:22.065Z,5.60
2023-02-18T16:53:46.488Z,5.45
2023-02-18T16:57:13.546Z,5.30
2023-02-18T17:00:38.671Z,5.22
2023-02-18T17:04:03.835Z,5.15
2023-02-18T17:07:28.121Z,5.08
2023-02-18T17:10:59.440Z,4.99
2023-02-18T17:14:24.520Z,4.88
2023-02-18T17:17:48.757Z,4.81
2023-02-18T17:21:18.688Z,4.73
2023-02-18T17:24:42.680Z,4.61
2023-02-18T17:28:07.694Z,4.55
2023-02-18T17:31:36.486Z,4.51
2023-02-18T17:35:00.393Z,4.51
2023-02-18T17:38:24.834Z,4.51
2023-02-18T17:41:48.834Z,4.52
2023-02-18T17:45:32.241Z,4.52
2023-02-18T17:48:59.209Z,4.47
2023-02-18T17:52:31.878Z,4.41
2023-02-18T17:55:55.756Z,4.38
2023-02-18T17:59:19.855Z,4.37
2023-02-18T18:02:43.908Z,4.37
2023-02-18T18:06:17.235Z,4.35
2023-02-18T18:09:42.371Z,4.34
2023-02-18T18:13:17.336Z,4.32
2023-02-18T18:16:41.373Z,4.26
2023-02-18T18:20:06.150Z,4.23
2023-02-18T18:23:30.093Z,4.17
2023-02-18T18:26:54.133Z,4.11
2023-02-18T18:30:18.794Z,4.04
2023-02-18T18:33:43.340Z,4.00
2023-02-18T18:37:11.098Z,3.95
2023-02-18T18:40:35.394Z,3.93
2023-02-18T18:43:59.693Z,3.90
2023-02-18T18:47:23.567Z,3.89
2023-02-18T18:50:48.784Z,3.90
2023-02-18T18:54:13.068Z,3.87
2023-02-18T18:57:37.319Z,3.83
2023-02-18T19:01:07.042Z,3.83
2023-02-18T19:04:31.114Z,3.83
2023-02-18T19:07:55.781Z,3.83
2023-02-18T19:11:19.933Z,3.85
2023-02-18T19:14:43.775Z,3.84
2023-02-18T19:18:08.476Z,3.87
2023-02-18T19:21:33.548Z,3.90
2023-02-18T19:24:57.650Z,3.89
2023-02-18T19:28:21.543Z,3.87
2023-02-18T19:31:45.490Z,3.85
2023-02-18T19:35:09.952Z,3.84
2023-02-18T19:38:33.812Z,3.87
2023-02-18T19:41:57.717Z,3.88
2023-02-18T19:45:23.503Z,3.89
2023-02-18T19:48:52.525Z,3.88
2023-02-18T19:52:16.562Z,3.87
2023-02-18T19:55:40.717Z,3.86
2023-02-18T19:59:04.580Z,3.83
2023-02-18T20:02:30.471Z,3.81
2023-02-18T20:05:54.500Z,3.77
2023-02-18T20:09:18.276Z,3.74
2023-02-18T20:12:42.712Z,3.74
2023-02-18T20:16:08.175Z,3.74
2023-02-18T20:19:32.888Z,3.71
2023-02-18T20:22:56.922Z,3.69
2023-02-18T20:26:20.846Z,3.65
2023-02-18T20:29:45.090Z,3.60
2023-02-18T20:33:09.013Z,3.57
2023-02-18T20:36:32.990Z,3.52
2023-02-18T20:39:57.487Z,3.49
2023-02-18T20:43:21.349Z,3.49
2023-02-18T20:46:46.337Z,3.47
2023-02-18T20:50:11.051Z,3.46
2023-02-18T20:53:37.040Z,3.48
2023-02-18T20:57:02.037Z,3.46
2023-02-18T21:00:25.987Z,3.38
2023-02-18T21:03:51.811Z,3.33
2023-02-18T21:07:16.169Z,3.32
2023-02-18T21:10:43.768Z,3.32
2023-02-18T21:14:10.718Z,3.33
2023-02-18T21:17:34.910Z,3.30
2023-02-18T21:20:59.779Z,3.29
2023-02-18T21:24:24.006Z,3.27
2023-02-18T21:27:47.978Z,3.28
2023-02-18T21:31:37.065Z,3.29
2023-02-18T21:35:01.242Z,3.30
2023-02-18T21:38:25.135Z,3.30
2023-02-18T21:41:49.047Z,3.26
2023-02-18T21:45:16.981Z,3.21
2023-02-18T21:48:58.466Z,3.15
2023-02-18T21:52:22.755Z,3.10
2023-02-18T21:56:02.184Z,3.09
2023-02-18T21:59:29.705Z,3.06
2023-02-18T22:02:53.756Z,3.05
2023-02-18T22:06:17.727Z,3.08
2023-02-18T22:09:41.820Z,3.10
2023-02-18T22:13:05.698Z,3.09
2023-02-18T22:16:29.688Z,3.06
2023-02-18T22:19:53.965Z,3.06
2023-02-18T22:23:18.708Z,3.07
2023-02-18T22:26:44.051Z,3.10
2023-02-18T22:30:08.483Z,3.14
2023-02-18T22:33:32.566Z,3.16
2023-02-18T22:36:56.554Z,3.17
2023-02-18T22:40:20.810Z,3.18
2023-02-18T22:43:44.997Z,3.16
2023-02-18T22:47:08.946Z,3.18
2023-02-18T22:50:32.937Z,3.17
2023-02-18T22:53:59.154Z,3.19
2023-02-18T22:57:23.189Z,3.22
2023-02-18T23:00:47.191Z,3.23
2023-02-18T23:04:15.700Z,3.24
2023-02-18T23:07:40.048Z,3.23
2023-02-18T23:11:10.531Z,3.19
2023-02-18T23:14:34.565Z,3.19
2023-02-18T23:17:58.653Z,3.20
2023-02-18T23:21:22.578Z,3.20
2023-02-18T23:24:47.455Z,3.19
2023-02-18T23:28:11.409Z,3.20
2023-02-18T23:31:37.963Z,3.21
2023-02-18T23:35:02.078Z,3.22
2023-02-18T23:38:25.969Z,3.23
2023-02-18T23:41:52.298Z,3.26
2023-02-18T23:45:16.376Z,3.26
2023-02-18T23:48:40.203Z,3.27
2023-02-18T23:52:04.158Z,3.27
2023-02-18T23:55:28.385Z,3.28
2023-02-18T23:58:57.438Z,3.29
